createdAt,value
2019-04-21T00:02:31.987Z,12.47
2019-04-21T00:05:10.741Z,15.55
2019-04-21T00:07:44.987Z,13.30
2019-04-21T00:10:18.753Z,12.40
2019-04-21T00:12:41.877Z,11.08
2019-04-21T00:15:06.113Z,9.53
2019-04-21T00:17:29.706Z,11.12
2019-04-21T00:20:10.272Z,11.38
2019-04-21T00:22:41.284Z,14.18
2019-04-21T00:25:13.951Z,13.30
2019-04-21T00:27:46.442Z,13.58
2019-04-21T00:30:21.679Z,14.13
2019-04-21T00:32:46.506Z,12.35
2019-04-21T00:35:08.536Z,19.98
2019-04-21T00:37:58.864Z,17.37
2019-04-21T00:40:23.996Z,21.07
2019-04-21T00:42:52.149Z,13.58
2019-04-21T00:45:20.681Z,15.53
2019-04-21T00:47:58.730Z,17.52
2019-04-21T00:50:31.430Z,13.90
2019-04-21T00:53:08.294Z,13.53
2019-04-21T00:55:45.865Z,13.65
2019-04-21T00:58:17.550Z,15.48
2019-04-21T01:00:49.578Z,11.38
2019-04-21T01:03:16.061Z,12.70
2019-04-21T01:05:50.146Z,11.05
2019-04-21T01:08:18.605Z,12.60
2019-04-21T01:10:38.114Z,9.38
2019-04-21T01:13:21.631Z,11.48
2019-04-21T01:15:48.918Z,15.08
2019-04-21T01:18:16.693Z,11.57
2019-04-21T01:20:27.966Z,13.10
2019-04-21T01:22:57.835Z,15.50
2019-04-21T01:25:33.041Z,11.05
2019-04-21T01:28:16.659Z,12.33
2019-04-21T01:30:50.690Z,13.75
2019-04-21T01:33:21.985Z,10.58
2019-04-21T01:35:48.259Z,12.28
2019-04-21T01:38:27.339Z,12.55
2019-04-21T01:40:56.744Z,10.48
2019-04-21T01:43:22.147Z,11.95
2019-04-21T01:45:49.120Z,9.53
2019-04-21T01:48:19.645Z,13.68
2019-04-21T01:50:51.098Z,12.98
2019-04-21T01:53:36.482Z,10.45
2019-04-21T01:56:11.624Z,13.08
2019-04-21T01:58:38.039Z,9.98
2019-04-21T02:01:08.693Z,10.40
2019-04-21T02:06:22.777Z,12.90
2019-04-21T02:08:51.431Z,11.15
2019-04-21T02:11:24.505Z,8.58
2019-04-21T02:13:57.585Z,7.83
2019-04-21T02:16:22.770Z,8.58
2019-04-21T02:18:52.958Z,8.53
2019-04-21T02:21:20.391Z,11.25
2019-04-21T02:24:01.928Z,10.70
2019-04-21T02:26:28.587Z,10.68
2019-04-21T02:29:02.018Z,9.30
2019-04-21T02:31:36.093Z,7.72
2019-04-21T02:34:11.359Z,7.22
2019-04-21T02:41:51.161Z,6.05
2019-04-21T02:44:08.644Z,9.68
2019-04-21T02:46:42.126Z,9.88
2019-04-21T02:49:31.117Z,12.15
2019-04-21T02:51:48.117Z,11.25
2019-04-21T02:54:43.937Z,9.10
2019-04-21T02:56:58.952Z,9.00
2019-04-21T03:04:42.597Z,7.97
2019-04-21T03:15:00.242Z,10.28
2019-04-21T03:17:22.016Z,9.33
2019-04-21T03:22:20.717Z,8.90
2019-04-21T03:27:31.101Z,12.80
2019-04-21T03:29:55.472Z,12.78
2019-04-21T03:37:23.404Z,14.95
2019-04-21T03:47:36.123Z,13.48
2019-04-21T03:52:29.980Z,11.90
2019-04-21T04:03:30.095Z,12.23
2019-04-21T04:05:49.443Z,13.30
2019-04-21T04:08:24.103Z,10.93
2019-04-21T04:10:42.748Z,10.73
2019-04-21T04:13:14.089Z,12.45
2019-04-21T04:15:49.043Z,10.28
2019-04-21T04:18:17.605Z,11.83
2019-04-21T04:23:35.546Z,12.68
2019-04-21T04:25:42.991Z,12.00
2019-04-21T04:28:24.386Z,9.83
2019-04-21T04:30:47.835Z,13.03
2019-04-21T04:33:20.809Z,9.83
2019-04-21T04:38:24.160Z,10.55
2019-04-21T04:41:06.160Z,16.83
2019-04-21T04:45:59.981Z,13.95
2019-04-21T04:48:35.215Z,13.93
2019-04-21T04:51:07.382Z,10.32
2019-04-21T04:56:12.321Z,12.98
2019-04-21T04:59:20.145Z,11.63
2019-04-21T05:11:39.887Z,13.28
2019-04-21T05:16:40.988Z,10.23
2019-04-21T05:21:34.420Z,10.80
2019-04-21T05:23:52.640Z,12.45
2019-04-21T05:26:14.352Z,14.85
2019-04-21T05:28:47.349Z,10.75
2019-04-21T05:31:31.710Z,12.30
2019-04-21T05:34:03.097Z,10.72
2019-04-21T05:36:44.783Z,10.75
2019-04-21T05:39:10.810Z,12.43
2019-04-21T05:41:37.310Z,11.87
2019-04-21T05:44:24.417Z,15.53
2019-04-21T05:47:05.559Z,13.80
2019-04-21T05:49:20.481Z,13.03
2019-04-21T05:51:52.631Z,11.48
2019-04-21T05:54:41.781Z,10.82
2019-04-21T05:57:05.755Z,10.18
2019-04-21T05:59:32.343Z,14.53
2019-04-21T06:02:16.574Z,12.15
2019-04-21T06:05:02.481Z,11.88
2019-04-21T06:07:13.313Z,16.37
2019-04-21T06:09:46.847Z,13.90
2019-04-21T06:12:11.725Z,11.60
2019-04-21T06:14:43.740Z,13.35
2019-04-21T06:17:19.238Z,17.30
2019-04-21T06:22:09.909Z,13.48
2019-04-21T06:24:54.338Z,12.20
2019-04-21T06:27:19.311Z,16.45
2019-04-21T06:29:46.641Z,16.57
2019-04-21T06:35:07.164Z,13.93
2019-04-21T06:37:40.567Z,16.77
2019-04-21T06:40:01.820Z,15.05
2019-04-21T06:42:16.494Z,20.05
2019-04-21T06:45:00.996Z,14.60
2019-04-21T06:47:47.441Z,14.07
2019-04-21T06:49:48.575Z,20.65
2019-04-21T06:52:44.829Z,16.85
2019-04-21T06:55:00.092Z,19.35
2019-04-21T06:57:21.823Z,17.07
2019-04-21T06:59:50.016Z,14.10
2019-04-21T07:02:37.800Z,17.87
2019-04-21T07:04:54.705Z,17.67
2019-04-21T07:07:26.126Z,17.85
2019-04-21T07:09:57.234Z,14.00
2019-04-21T07:12:22.011Z,13.93
2019-04-21T07:14:59.559Z,12.98
2019-04-21T07:17:28.191Z,11.50
2019-04-21T07:20:01.844Z,16.62
2019-04-21T07:22:35.359Z,15.10
2019-04-21T07:25:03.076Z,14.10
2019-04-21T07:27:31.990Z,13.62
2019-04-21T07:30:04.928Z,13.03
2019-04-21T07:32:51.534Z,10.25
2019-04-21T07:35:06.732Z,13.85
2019-04-21T07:37:29.923Z,14.60
2019-04-21T07:40:03.746Z,9.35
2019-04-21T07:42:28.176Z,11.50
2019-04-21T07:44:53.547Z,12.68
2019-04-21T07:47:36.637Z,13.05
2019-04-21T07:50:07.393Z,12.63
2019-04-21T07:52:46.919Z,11.28
2019-04-21T07:57:36.724Z,16.85
2019-04-21T08:00:29.706Z,15.35
2019-04-21T08:02:40.306Z,16.37
2019-04-21T08:05:13.569Z,11.88
2019-04-21T08:10:11.649Z,12.53
2019-04-21T08:12:39.069Z,14.23
2019-04-21T08:15:39.925Z,15.72
2019-04-21T08:17:42.571Z,15.03
2019-04-21T08:20:15.635Z,14.40
2019-04-21T08:22:48.105Z,19.07
2019-04-21T08:25:18.255Z,19.40
2019-04-21T08:27:49.546Z,15.00
2019-04-21T08:30:21.469Z,14.35
2019-04-21T08:40:29.107Z,12.25
2019-04-21T08:42:52.388Z,14.93
2019-04-21T08:45:21.827Z,12.33
2019-04-21T08:47:55.339Z,16.48
2019-04-21T08:50:22.610Z,15.98
2019-04-21T08:52:57.048Z,16.45
2019-04-21T08:55:40.076Z,18.10
2019-04-21T08:58:30.907Z,18.87
2019-04-21T09:00:56.299Z,15.63
2019-04-21T09:03:42.983Z,16.05
2019-04-21T09:06:29.791Z,15.43
2019-04-21T09:08:47.132Z,15.93
2019-04-21T09:11:13.050Z,14.25
2019-04-21T09:13:47.677Z,18.23
2019-04-21T09:16:16.894Z,16.82
2019-04-21T09:18:43.343Z,16.48
2019-04-21T09:21:19.430Z,17.05
2019-04-21T09:23:50.821Z,15.58
2019-04-21T09:26:18.649Z,16.82
2019-04-21T09:28:45.118Z,17.50
2019-04-21T09:31:06.316Z,20.68
2019-04-21T09:33:39.053Z,20.05
2019-04-21T09:36:07.917Z,18.25
2019-04-21T09:38:38.062Z,19.37
2019-04-21T09:41:06.658Z,17.30
2019-04-21T09:43:42.071Z,18.07
2019-04-21T09:46:06.519Z,16.87
2019-04-21T09:48:49.122Z,13.10
2019-04-21T09:51:06.538Z,18.07
2019-04-21T09:53:38.768Z,18.95
2019-04-21T09:56:13.129Z,15.45
2019-04-21T09:58:42.457Z,15.95
2019-04-21T10:01:19.739Z,15.60
2019-04-21T10:03:44.839Z,12.80
2019-04-21T10:06:09.288Z,14.38
2019-04-21T10:08:38.624Z,14.73
2019-04-21T10:11:07.968Z,13.10
2019-04-21T10:13:36.933Z,16.65
2019-04-21T10:16:23.986Z,15.63
2019-04-21T10:18:52.780Z,12.68
2019-04-21T10:21:22.040Z,14.70
2019-04-21T10:23:52.302Z,15.85
2019-04-21T10:26:22.173Z,13.83
2019-04-21T10:28:51.142Z,15.13
2019-04-21T10:31:20.793Z,16.60
2019-04-21T10:33:50.426Z,12.82
2019-04-21T10:36:20.403Z,14.73
2019-04-21T10:38:52.203Z,14.47
2019-04-21T10:41:21.379Z,13.88
2019-04-21T10:43:51.382Z,14.20
2019-04-21T10:46:20.339Z,12.50
2019-04-21T10:48:49.006Z,16.00
2019-04-21T10:51:19.048Z,15.93
2019-04-21T10:53:54.243Z,18.40
2019-04-21T10:56:30.623Z,15.25
2019-04-21T10:58:54.193Z,13.72
2019-04-21T11:01:25.224Z,13.60
2019-04-21T11:03:58.579Z,15.63
2019-04-21T11:06:28.793Z,15.88
2019-04-21T11:09:01.014Z,14.68
2019-04-21T11:11:28.260Z,14.13
2019-04-21T11:13:57.041Z,18.40
2019-04-21T11:16:26.905Z,15.28
2019-04-21T11:18:56.095Z,13.45
2019-04-21T11:21:25.183Z,12.65
2019-04-21T11:23:54.273Z,14.55
2019-04-21T11:26:24.330Z,14.95
2019-04-21T11:28:54.925Z,11.35
2019-04-21T11:31:25.012Z,12.43
2019-04-21T11:33:55.374Z,15.03
2019-04-21T11:36:25.014Z,12.47
2019-04-21T11:39:12.409Z,15.23
2019-04-21T11:41:29.827Z,16.77
2019-04-21T11:43:59.257Z,21.90
2019-04-21T11:46:28.685Z,16.97
2019-04-21T11:48:58.156Z,15.55
2019-04-21T11:51:27.242Z,14.53
2019-04-21T11:53:56.945Z,17.02
2019-04-21T11:56:27.117Z,16.25
2019-04-21T11:58:57.756Z,20.05
2019-04-21T12:01:27.651Z,22.30
2019-04-21T12:03:58.037Z,17.40
2019-04-21T12:06:32.244Z,18.67
2019-04-21T12:09:01.055Z,20.52
2019-04-21T12:11:29.410Z,20.17
2019-04-21T12:13:58.715Z,16.67
2019-04-21T12:16:28.632Z,19.05
2019-04-21T12:18:58.822Z,20.25
2019-04-21T12:21:31.139Z,17.32
2019-04-21T12:23:58.602Z,17.82
2019-04-21T12:26:28.341Z,17.02
2019-04-21T12:28:57.646Z,16.40
2019-04-21T12:31:45.497Z,16.02
2019-04-21T12:34:16.061Z,15.70
2019-04-21T12:36:46.296Z,14.35
2019-04-21T12:39:16.893Z,19.57
2019-04-21T12:41:46.682Z,12.93
2019-04-21T12:44:15.745Z,14.68
2019-04-21T12:46:45.594Z,18.27
2019-04-21T12:49:15.839Z,15.65
2019-04-21T12:51:46.126Z,14.23
2019-04-21T12:54:15.560Z,14.80
2019-04-21T12:56:45.573Z,14.73
2019-04-21T12:59:14.998Z,12.78
2019-04-21T13:01:45.287Z,18.52
2019-04-21T13:04:15.636Z,18.62
2019-04-21T13:06:45.761Z,17.20
2019-04-21T13:09:19.863Z,15.83
2019-04-21T13:11:46.899Z,16.80
2019-04-21T13:14:16.283Z,17.37
2019-04-21T13:16:45.682Z,15.70
2019-04-21T13:19:15.477Z,13.95
2019-04-21T13:21:45.715Z,15.90
2019-04-21T13:24:15.894Z,18.95
2019-04-21T13:26:52.241Z,13.98
2019-04-21T13:29:16.498Z,15.65
2019-04-21T13:31:45.522Z,15.95
2019-04-21T13:34:15.788Z,16.07
2019-04-21T13:36:45.531Z,15.20
2019-04-21T13:39:53.607Z,19.20
2019-04-21T13:42:06.344Z,15.93
2019-04-21T13:44:28.871Z,16.37
2019-04-21T13:46:58.815Z,16.05
2019-04-21T13:49:27.894Z,24.05
2019-04-21T13:51:56.612Z,20.92
2019-04-21T13:54:25.780Z,18.70
2019-04-21T13:56:56.398Z,19.67
2019-04-21T13:59:26.402Z,19.65
2019-04-21T14:01:55.844Z,16.85
2019-04-21T14:04:25.341Z,15.98
2019-04-21T14:06:54.551Z,16.45
2019-04-21T14:09:35.802Z,17.92
2019-04-21T14:11:55.771Z,17.98
2019-04-21T14:14:26.154Z,16.97
2019-04-21T14:16:56.180Z,18.90
2019-04-21T14:19:25.634Z,18.73
2019-04-21T14:21:55.351Z,17.02
2019-04-21T14:24:26.716Z,19.77
2019-04-21T14:26:56.295Z,19.57
2019-04-21T14:29:25.762Z,18.00
2019-04-21T14:31:56.038Z,17.05
2019-04-21T14:34:25.969Z,18.75
2019-04-21T14:36:56.810Z,19.65
2019-04-21T14:39:26.359Z,19.65
2019-04-21T14:41:56.104Z,16.85
2019-04-21T14:44:27.098Z,15.32
2019-04-21T14:47:00.990Z,18.80
2019-04-21T14:49:39.341Z,14.38
2019-04-21T14:52:12.992Z,18.55
2019-04-21T14:54:44.588Z,18.80
2019-04-21T14:57:13.980Z,19.10
2019-04-21T14:59:42.862Z,19.82
2019-04-21T15:02:12.055Z,16.12
2019-04-21T15:04:41.750Z,17.42
2019-04-21T15:07:10.639Z,16.85
2019-04-21T15:09:41.218Z,17.48
2019-04-21T15:12:10.180Z,21.00
2019-04-21T15:14:40.254Z,14.65
2019-04-21T15:17:09.710Z,16.75
2019-04-21T15:19:38.534Z,15.75
2019-04-21T15:22:08.233Z,16.45
2019-04-21T15:24:38.272Z,18.05
2019-04-21T15:27:07.532Z,16.93
2019-04-21T15:29:36.630Z,15.90
2019-04-21T15:32:06.333Z,15.88
2019-04-21T15:34:36.085Z,13.05
2019-04-21T15:37:06.168Z,15.55
2019-04-21T15:39:35.470Z,18.70
2019-04-21T15:42:04.565Z,13.13
2019-04-21T15:44:34.619Z,14.45
2019-04-21T15:47:04.102Z,15.90
2019-04-21T15:49:58.932Z,17.27
2019-04-21T15:52:22.281Z,18.65
2019-04-21T15:54:52.674Z,17.70
2019-04-21T15:57:26.030Z,16.27
2019-04-21T16:00:00.408Z,17.80
2019-04-21T16:02:34.851Z,12.95
2019-04-21T16:05:06.618Z,14.00
2019-04-21T16:07:36.212Z,13.80
2019-04-21T16:10:10.653Z,13.03
2019-04-21T16:12:40.157Z,11.43
2019-04-21T16:15:12.392Z,10.98
2019-04-21T16:17:41.802Z,16.45
2019-04-21T16:20:12.214Z,15.20
2019-04-21T16:22:42.327Z,14.53
2019-04-21T16:25:12.753Z,14.40
2019-04-21T16:27:41.650Z,15.85
2019-04-21T16:30:12.164Z,13.58
2019-04-21T16:32:42.415Z,14.53
2019-04-21T16:35:14.441Z,14.45
2019-04-21T16:37:43.663Z,15.32
2019-04-21T16:42:48.043Z,16.23
2019-04-21T16:45:18.837Z,14.58
2019-04-21T16:47:51.721Z,13.75
2019-04-21T16:50:21.383Z,12.23
2019-04-21T16:52:52.492Z,15.18
2019-04-21T16:55:33.175Z,18.37
2019-04-21T16:58:12.169Z,14.28
2019-04-21T17:00:42.486Z,19.40
2019-04-21T17:03:06.416Z,16.95
2019-04-21T17:05:36.275Z,20.68
2019-04-21T17:08:05.981Z,13.25
2019-04-21T17:10:35.439Z,16.52
2019-04-21T17:13:06.109Z,19.35
2019-04-21T17:15:51.749Z,12.40
2019-04-21T17:18:23.068Z,10.65
2019-04-21T17:20:45.059Z,15.45
2019-04-21T17:23:07.248Z,11.80
2019-04-21T17:25:37.053Z,14.65
2019-04-21T17:28:07.829Z,14.87
2019-04-21T17:30:36.943Z,14.00
2019-04-21T17:33:10.086Z,11.83
2019-04-21T17:35:36.933Z,15.68
2019-04-21T17:38:05.945Z,15.80
2019-04-21T17:40:35.729Z,17.42
2019-04-21T17:43:09.084Z,11.65
2019-04-21T17:45:37.192Z,14.80
2019-04-21T17:48:13.507Z,14.78
2019-04-21T17:50:45.514Z,16.85
2019-04-21T17:53:38.465Z,17.17
2019-04-21T17:56:25.985Z,14.78
2019-04-21T17:58:52.454Z,11.78
2019-04-21T18:01:25.336Z,15.45
2019-04-21T18:04:01.698Z,14.33
2019-04-21T18:06:26.152Z,13.83
2019-04-21T18:09:04.387Z,19.52
2019-04-21T18:11:22.778Z,14.87
2019-04-21T18:13:41.840Z,14.53
2019-04-21T18:16:23.049Z,13.22
2019-04-21T18:18:42.058Z,12.43
2019-04-21T18:21:21.122Z,12.33
2019-04-21T18:24:00.706Z,12.58
2019-04-21T18:26:34.719Z,14.07
2019-04-21T18:28:55.741Z,13.40
2019-04-21T18:31:26.971Z,17.15
2019-04-21T18:34:02.195Z,12.05
2019-04-21T18:36:38.406Z,12.28
2019-04-21T18:39:23.437Z,14.78
2019-04-21T18:42:02.533Z,19.07
2019-04-21T18:44:38.403Z,10.73
2019-04-21T18:47:12.182Z,13.70
2019-04-21T18:49:26.947Z,14.25
2019-04-21T18:52:22.407Z,13.30
2019-04-21T18:54:58.168Z,11.45
2019-04-21T18:57:26.599Z,13.50
2019-04-21T18:59:49.073Z,17.30
2019-04-21T19:02:20.763Z,11.20
2019-04-21T19:04:48.410Z,10.78
2019-04-21T19:07:32.716Z,11.53
2019-04-21T19:12:58.169Z,11.78
2019-04-21T19:15:04.808Z,11.00
2019-04-21T19:20:25.496Z,8.90
2019-04-21T19:22:35.984Z,11.43
2019-04-21T19:25:09.709Z,13.70
2019-04-21T19:27:45.594Z,10.68
2019-04-21T19:32:40.908Z,10.32
2019-04-21T19:34:59.402Z,18.52
2019-04-21T19:37:27.952Z,8.58
2019-04-21T19:40:09.560Z,9.33
2019-04-21T19:42:38.337Z,12.73
2019-04-21T19:45:14.966Z,11.85
2019-04-21T19:47:48.655Z,8.85
2019-04-21T19:50:19.482Z,9.03
2019-04-21T19:52:39.868Z,9.85
2019-04-21T19:55:00.564Z,8.10
2019-04-21T19:57:31.203Z,9.98
2019-04-21T20:00:03.777Z,10.60
2019-04-21T20:02:32.285Z,11.83
2019-04-21T20:05:06.996Z,10.78
2019-04-21T20:07:49.380Z,9.03
2019-04-21T20:10:24.034Z,6.83
2019-04-21T20:12:53.714Z,13.32
2019-04-21T20:15:33.011Z,17.48
2019-04-21T20:17:55.637Z,10.75
2019-04-21T20:20:09.006Z,8.45
2019-04-21T20:22:42.178Z,9.03
2019-04-21T20:25:15.216Z,10.35
2019-04-21T20:27:52.192Z,9.48
2019-04-21T20:30:29.815Z,9.55
2019-04-21T20:33:14.176Z,11.38
2019-04-21T20:35:42.960Z,8.85
2019-04-21T20:38:00.404Z,7.50
2019-04-21T20:40:25.291Z,11.95
2019-04-21T20:43:06.515Z,7.15
2019-04-21T20:45:33.511Z,10.48
2019-04-21T20:47:52.154Z,10.30
2019-04-21T20:50:29.870Z,10.08
2019-04-21T20:53:06.090Z,11.28
2019-04-21T20:55:26.479Z,12.55
2019-04-21T20:58:00.688Z,12.23
2019-04-21T21:00:41.231Z,7.85
2019-04-21T21:03:12.065Z,8.60
2019-04-21T21:05:35.864Z,9.93
2019-04-21T21:08:14.372Z,12.45
2019-04-21T21:10:40.066Z,8.35
2019-04-21T21:15:41.307Z,12.93
2019-04-21T21:18:26.241Z,9.40
2019-04-21T21:20:43.071Z,9.88
2019-04-21T21:23:09.940Z,9.33
2019-04-21T21:25:45.832Z,9.93
2019-04-21T21:28:04.498Z,15.25
2019-04-21T21:30:39.909Z,8.65
2019-04-21T21:33:21.430Z,10.90
2019-04-21T21:35:41.286Z,10.72
2019-04-21T21:38:19.969Z,11.28
2019-04-21T21:40:46.571Z,7.90
2019-04-21T21:43:01.522Z,6.65
2019-04-21T21:45:39.061Z,9.15
2019-04-21T21:48:18.764Z,8.95
2019-04-21T21:50:45.995Z,7.45
2019-04-21T21:53:08.406Z,10.43
2019-04-21T21:55:35.469Z,7.33
2019-04-21T21:58:04.418Z,9.43
2019-04-21T22:00:42.024Z,9.95
2019-04-21T22:03:14.957Z,8.55
2019-04-21T22:05:45.518Z,10.40
2019-04-21T22:08:10.162Z,8.75
2019-04-21T22:10:39.368Z,8.35
2019-04-21T22:13:12.829Z,9.63
2019-04-21T22:15:39.610Z,9.18
2019-04-21T22:18:33.362Z,12.35
2019-04-21T22:20:59.319Z,8.20
2019-04-21T22:23:25.445Z,11.15
2019-04-21T22:25:44.346Z,6.37
2019-04-21T22:28:15.651Z,14.98
2019-04-21T22:30:49.717Z,6.90
2019-04-21T22:33:18.082Z,8.98
2019-04-21T22:35:51.761Z,7.83
2019-04-21T22:38:34.824Z,8.13
2019-04-21T22:41:00.238Z,7.42
2019-04-21T22:43:26.187Z,6.47
2019-04-21T22:45:49.507Z,5.03
2019-04-21T22:48:38.733Z,6.35
2019-04-21T22:51:18.816Z,6.97
2019-04-21T22:53:44.547Z,7.90
2019-04-21T22:56:14.909Z,5.67
2019-04-21T22:58:43.959Z,6.22
2019-04-21T23:01:11.015Z,5.47
2019-04-21T23:03:50.271Z,4.67
2019-04-21T23:06:19.281Z,8.73
2019-04-21T23:08:45.399Z,7.53
2019-04-21T23:11:14.642Z,4.15
2019-04-21T23:13:45.041Z,8.70
2019-04-21T23:16:21.458Z,6.20
2019-04-21T23:19:05.936Z,6.75
2019-04-21T23:21:31.678Z,6.08
2019-04-21T23:24:05.842Z,5.70
2019-04-21T23:26:37.651Z,6.75
2019-04-21T23:29:08.938Z,7.33
2019-04-21T23:31:44.454Z,9.40
2019-04-21T23:33:52.558Z,7.08
2019-04-21T23:36:26.342Z,6.62
2019-04-21T23:38:55.041Z,6.20
2019-04-21T23:41:26.071Z,6.75
2019-04-21T23:44:00.393Z,4.30
2019-04-21T23:46:28.157Z,7.15
2019-04-21T23:49:09.858Z,6.60
2019-04-21T23:51:37.081Z,9.60
2019-04-21T23:53:57.412Z,5.87
2019-04-21T23:56:33.446Z,5.58
2019-04-21T23:59:02.976Z,4.30
